Time;durP1;ratioP1;P1;durP2;ratioP2;P2;SDS_P1;SDS_P2;PMS_P1;PMS_P2;Temp;Humidity;BMP_temperature;BMP_pressure;BME280_temperature;BME280_humidity;BME280_pressure;Samples;Min_cycle;Max_cycle;Signal;HPM_P1;HPM_P2
2022/12/04 00:00:15;;;;;;;32.85;16.92;;;;;;;7.01;59.68;100483.25;7789136;32;37981;-80
2022/12/04 00:04:32;;;;;;;32.97;17.70;;;;;;;7.10;59.74;100488.06;7779051;32;37659;-80
2022/12/04 00:08:49;;;;;;;35.53;17.80;;;;;;;7.24;59.31;100471.63;7792602;32;39214;-80
2022/12/04 00:13:05;;;;;;;32.80;17.25;;;;;;;7.09;60.10;100482.91;7787541;32;40738;-80
2022/12/04 00:17:21;;;;;;;31.87;17.77;;;;;;;7.48;58.89;100488.75;7765350;32;37587;-81
2022/12/04 00:21:38;;;;;;;34.00;18.02;;;;;;;7.23;59.54;100491.69;7765692;32;37588;-80
2022/12/04 00:26:00;;;;;;;30.60;17.48;;;;;;;7.40;59.00;100492.66;7765480;32;39711;-81
2022/12/04 00:30:16;;;;;;;30.20;16.98;;;;;;;7.43;58.65;100497.59;7752051;32;41441;-80
2022/12/04 00:34:32;;;;;;;28.38;16.23;;;;;;;7.21;59.48;100488.34;7765763;32;37816;-81
2022/12/04 00:38:49;;;;;;;31.95;17.15;;;;;;;7.47;58.70;100481.69;7751500;32;37884;-81
2022/12/04 00:43:05;;;;;;;31.17;17.50;;;;;;;7.45;58.71;100491.94;7765333;32;39292;-81
2022/12/04 00:47:21;;;;;;;30.33;18.50;;;;;;;7.27;59.14;100492.84;7787740;32;40746;-81
2022/12/04 00:51:37;;;;;;;30.45;17.58;;;;;;;6.98;60.08;100500.78;7778351;32;37966;-81
2022/12/04 00:55:53;;;;;;;33.97;18.35;;;;;;;6.95;60.11;100493.09;7778386;32;38322;-81
2022/12/04 01:00:10;;;;;;;33.28;18.77;;;;;;;7.00;60.01;100487.81;7790463;32;38876;-81
2022/12/04 01:04:26;;;;;;;31.37;17.45;;;;;;;7.27;59.15;100484.72;7792312;32;39948;-80
2022/12/04 01:08:42;;;;;;;34.08;18.48;;;;;;;7.16;59.45;100486.34;7792047;32;38004;-80
2022/12/04 01:12:58;;;;;;;34.50;19.50;;;;;;;7.04;59.70;100486.31;7792054;32;38056;-80
2022/12/04 01:17:14;;;;;;;30.33;17.80;;;;;;;6.86;60.15;100480.94;7791455;32;39293;-80
2022/12/04 01:21:31;;;;;;;33.53;18.62;;;;;;;6.76;60.48;100474.19;7778084;32;39954;-80
2022/12/04 01:25:56;;;;;;;32.15;18.75;;;;;;;6.68;60.76;100474.50;7791783;32;38010;-79
2022/12/04 01:30:12;;;;;;;38.42;19.62;;;;;;;6.78;60.65;100463.13;7768232;32;36781;-80
2022/12/04 01:34:28;;;;;;;33.85;18.17;;;;;;;6.67;60.68;100458.47;7764709;32;39283;-80
2022/12/04 01:38:45;;;;;;;32.72;17.87;;;;;;;6.66;60.65;100459.56;7764696;32;40159;-80
2022/12/04 01:43:01;;;;;;;34.85;19.35;;;;;;;6.48;61.10;100460.41;7764507;32;38723;-80
2022/12/04 01:47:17;;;;;;;35.35;19.37;;;;;;;6.32;61.35;100469.97;7786399;32;38053;-80
2022/12/04 01:51:44;;;;;;;37.65;20.80;;;;;;;6.17;62.42;100459.53;7791643;32;38908;-80
2022/12/04 01:56:01;;;;;;;37.65;20.50;;;;;;;6.09;63.05;100451.69;7791012;32;40858;-79
2022/12/04 02:00:18;;;;;;;37.28;20.55;;;;;;;6.11;62.93;100455.03;7750088;32;38436;-80
2022/12/04 02:04:35;;;;;;;33.58;19.37;;;;;;;6.07;63.51;100461.94;7764088;32;38014;-79
2022/12/04 02:08:51;;;;;;;34.88;19.42;;;;;;;6.33;62.38;100456.22;7764081;32;40091;-79
2022/12/04 02:13:53;;;;;;;39.40;19.98;;;;;;;6.61;61.84;100465.66;7750095;32;39592;-80
2022/12/04 02:18:28;;;;;;;33.10;19.45;;;;;;;6.48;62.16;100465.81;7679219;32;38786;-80
2022/12/04 02:23:03;;;;;;;39.58;22.73;;;;;;;6.08;64.10;100479.84;7732329;32;37703;-80
2022/12/04 02:27:40;;;;;;;35.97;20.80;;;;;;;5.92;65.15;100476.63;7763512;32;38930;-80
2022/12/04 02:32:04;;;;;;;36.83;20.35;;;;;;;5.99;65.94;100466.59;7745491;32;40803;-80
2022/12/04 02:36:27;;;;;;;39.45;20.42;;;;;;;6.31;64.20;100466.47;7776816;32;38081;-80
2022/12/04 02:40:46;;;;;;;36.05;20.60;;;;;;;6.29;64.00;100463.13;7790067;32;37162;-80
2022/12/04 02:45:14;;;;;;;35.92;19.25;;;;;;;6.50;63.58;100455.56;7790193;32;39166;-80
2022/12/04 02:49:43;;;;;;;37.50;20.58;;;;;;;6.33;63.88;100458.94;7790077;32;39654;-80
2022/12/04 02:54:04;;;;;;;35.05;19.33;;;;;;;6.35;63.73;100451.41;7777005;32;38217;-80
2022/12/04 02:58:30;;;;;;;35.40;19.95;;;;;;;6.31;63.99;100458.34;7778852;32;37079;-80
2022/12/04 03:02:48;;;;;;;37.15;20.40;;;;;;;6.51;63.26;100457.25;7769466;32;39290;-80
2022/12/04 03:07:31;;;;;;;36.05;19.48;;;;;;;5.93;64.55;100464.78;7764937;32;38996;-80
2022/12/04 03:11:57;;;;;;;37.23;20.93;;;;;;;6.41;63.44;100467.78;7765425;32;37661;-80
2022/12/04 03:16:22;;;;;;;35.70;19.75;;;;;;;6.44;63.32;100456.50;7765834;32;37858;-80
2022/12/04 03:20:39;;;;;;;38.42;20.62;;;;;;;6.28;63.65;100466.91;7752833;32;39292;-80
2022/12/04 03:24:56;;;;;;;35.38;20.88;;;;;;;6.34;63.71;100452.44;7765316;32;40013;-80
2022/12/04 03:29:34;;;;;;;37.42;20.40;;;;;;;6.13;64.17;100461.03;7765046;32;38011;-81
2022/12/04 03:33:55;;;;;;;37.97;20.83;;;;;;;6.47;63.11;100440.63;7765390;32;37084;-81
2022/12/04 03:38:26;;;;;;;36.28;20.90;;;;;;;6.39;63.13;100449.88;7766427;32;40012;-81
2022/12/04 03:42:51;;;;;;;39.45;19.77;;;;;;;6.51;62.74;100446.41;7765170;32;39898;-81
2022/12/04 03:47:28;;;;;;;34.10;19.77;;;;;;;6.38;63.21;100442.81;7778287;32;37633;-81
2022/12/04 03:51:52;;;;;;;38.75;21.50;;;;;;;6.19;63.84;100443.87;7780283;32;36869;-81
2022/12/04 03:56:17;;;;;;;37.08;20.05;;;;;;;6.23;63.70;100442.38;7774508;32;39962;-81
2022/12/04 04:00:37;;;;;;;34.55;19.98;;;;;;;6.38;62.95;100437.41;7766067;32;40512;-80
2022/12/04 04:04:56;;;;;;;32.05;20.33;;;;;;;6.05;63.66;100442.38;7783728;32;38727;-81
2022/12/04 04:09:17;;;;;;;37.50;19.92;;;;;;;6.37;62.42;100443.87;7779183;32;37286;-81
2022/12/04 04:27:28;;;;;;;36.33;20.95;;;;;;;6.14;62.60;100452.69;7780885;32;37105;-81
2022/12/04 04:31:50;;;;;;;36.95;20.05;;;;;;;5.99;63.62;100454.94;7792726;32;40037;-81
2022/12/04 04:36:42;;;;;;;34.63;21.10;;;;;;;6.10;63.51;100461.50;7791433;32;40952;-81
2022/12/04 04:41:41;;;;;;;38.08;21.10;;;;;;;5.78;64.64;100456.19;7770875;32;38907;-81
2022/12/04 04:46:05;;;;;;;37.80;21.75;;;;;;;5.93;64.42;100459.38;7724979;32;37086;-81
2022/12/04 04:50:21;;;;;;;43.13;23.08;;;;;;;6.10;63.80;100458.78;7771901;32;39286;-81
2022/12/04 04:54:38;;;;;;;38.28;22.50;;;;;;;6.07;64.23;100461.94;7764214;32;39621;-81
2022/12/04 04:58:54;;;;;;;41.83;23.83;;;;;;;6.12;64.40;100462.09;7765298;32;38668;-81
2022/12/04 05:03:11;;;;;;;38.38;23.02;;;;;;;6.05;64.72;100461.34;7765292;32;37208;-81
2022/12/04 05:07:27;;;;;;;42.33;22.37;;;;;;;6.01;64.97;100464.47;7765249;32;39444;-80
2022/12/04 05:11:43;;;;;;;40.15;21.77;;;;;;;6.20;63.84;100461.78;7765545;32;39527;-80
2022/12/04 05:16:02;;;;;;;41.72;23.05;;;;;;;5.98;64.46;100454.09;7765062;32;37639;-80
2022/12/04 05:20:18;;;;;;;40.50;22.92;;;;;;;6.00;64.42;100460.16;7763804;32;37974;-80
2022/12/04 05:24:35;;;;;;;36.75;21.27;;;;;;;6.21;63.42;100466.16;7763731;32;39971;-80
2022/12/04 05:28:51;;;;;;;38.78;21.25;;;;;;;6.07;63.76;100461.94;7764858;32;40766;-80
2022/12/04 05:33:08;;;;;;;41.15;21.62;;;;;;;6.16;63.69;100468.72;7763577;32;37937;-79
2022/12/04 05:37:25;;;;;;;34.47;21.48;;;;;;;6.05;63.68;100469.47;7768818;32;37997;-80
2022/12/04 05:41:41;;;;;;;36.85;21.20;;;;;;;6.19;63.02;100481.78;7790827;32;39308;-80
2022/12/04 05:46:05;;;;;;;40.03;22.15;;;;;;;6.44;62.33;100460.03;7791661;32;39985;-80
2022/12/04 05:50:22;;;;;;;39.78;21.23;;;;;;;6.35;62.30;100470.34;7791734;32;37649;-79
2022/12/04 05:54:38;;;;;;;39.05;21.35;;;;;;;6.29;62.50;100475.84;7791740;32;36896;-79
2022/12/04 05:58:54;;;;;;;39.50;21.55;;;;;;;6.19;63.12;100470.94;7791550;32;39895;-80
2022/12/04 06:03:10;;;;;;;42.97;23.17;;;;;;;6.23;62.96;100477.59;7791418;32;39953;-80
2022/12/04 06:07:26;;;;;;;45.63;23.67;;;;;;;5.98;63.97;100478.47;7785708;32;37971;-80
2022/12/04 06:11:43;;;;;;;37.42;23.30;;;;;;;6.00;63.85;100483.66;7763114;32;37987;-79
2022/12/04 06:15:59;;;;;;;37.88;22.10;;;;;;;6.17;63.34;100473.06;7763972;32;39280;-79
2022/12/04 06:20:15;;;;;;;38.28;22.15;;;;;;;6.15;63.75;100477.87;7762564;32;40506;-79
2022/12/04 06:24:32;;;;;;;36.10;21.40;;;;;;;6.07;64.01;100473.59;7766748;32;38509;-79
2022/12/04 06:28:48;;;;;;;40.72;21.87;;;;;;;6.28;63.12;100468.75;7789865;32;37866;-79
2022/12/04 06:33:04;;;;;;;40.67;23.42;;;;;;;6.01;64.02;100463.66;7793739;32;39242;-80
2022/12/04 06:37:23;;;;;;;43.50;23.02;;;;;;;6.12;63.69;100465.62;7794201;32;40725;-80
2022/12/04 06:41:39;;;;;;;39.47;22.20;;;;;;;5.77;65.28;100474.28;7777347;32;37788;-81
2022/12/04 06:46:07;;;;;;;41.00;22.70;;;;;;;6.10;63.93;100475.84;7766938;32;36819;-80
2022/12/04 06:50:23;;;;;;;36.35;21.08;;;;;;;6.06;63.93;100476.53;7766959;32;39327;-79
2022/12/04 06:54:40;;;;;;;38.65;21.83;;;;;;;6.31;63.64;100482.69;7766745;32;39695;-79
2022/12/04 06:58:59;;;;;;;39.50;22.02;;;;;;;6.30;63.22;100477.50;7787318;32;38828;-80
2022/12/04 07:03:15;;;;;;;38.67;22.05;;;;;;;6.17;63.86;100484.75;7793856;32;37263;-80
2022/12/04 07:07:31;;;;;;;35.50;20.20;;;;;;;6.19;64.00;100482.62;7793862;32;39990;-80
2022/12/04 07:11:47;;;;;;;38.72;21.70;;;;;;;6.41;63.27;100475.91;7793761;32;39624;-80
2022/12/04 07:16:06;;;;;;;35.25;20.60;;;;;;;6.11;64.01;100479.41;7793721;32;37607;-80
2022/12/04 07:20:23;;;;;;;41.47;22.13;;;;;;;6.15;64.58;100481.41;7779962;32;37020;-80
2022/12/04 07:24:39;;;;;;;39.60;22.35;;;;;;;6.37;63.74;100475.53;7793745;32;39253;-80
2022/12/04 07:28:56;;;;;;;40.92;20.92;;;;;;;6.30;64.17;100475.62;7770304;32;40884;-80
2022/12/04 07:33:13;;;;;;;38.72;21.12;;;;;;;6.39;64.21;100485.09;7766378;32;38306;-80
2022/12/04 07:37:29;;;;;;;34.45;20.83;;;;;;;6.73;63.07;100487.38;7766136;32;36908;-80
2022/12/04 07:41:45;;;;;;;38.47;20.70;;;;;;;6.82;62.62;100499.53;7783053;32;39317;-80
2022/12/04 07:46:22;;;;;;;37.67;21.65;;;;;;;6.84;62.52;100488.47;7793374;32;39596;-80
2022/12/04 07:50:39;;;;;;;39.65;21.58;;;;;;;6.74;62.66;100475.47;7793228;32;38103;-80
2022/12/04 07:54:55;;;;;;;40.53;21.98;;;;;;;6.61;63.02;100490.03;7793235;32;37447;-81
2022/12/04 07:59:11;;;;;;;45.42;23.98;;;;;;;6.72;62.55;100491.97;7793341;32;39313;-80
2022/12/04 08:03:28;;;;;;;40.50;22.00;;;;;;;6.59;63.38;100497.56;7793180;32;40515;-80
2022/12/04 08:07:44;;;;;;;38.10;20.48;;;;;;;7.34;61.84;100496.28;7782988;32;37999;-80
2022/12/04 08:12:00;;;;;;;34.17;19.80;;;;;;;7.37;62.02;100508.56;7777546;32;37892;-86
2022/12/04 08:16:16;;;;;;;38.58;20.65;;;;;;;7.52;62.88;100501.63;7792901;32;38300;-82
2022/12/04 08:20:32;;;;;;;37.88;21.27;;;;;;;7.93;61.71;100492.78;7792956;32;39997;-82
2022/12/04 08:24:49;;;;;;;37.88;20.60;;;;;;;8.20;58.84;100491.22;7792817;32;37893;-83
2022/12/04 08:29:05;;;;;;;33.42;19.52;;;;;;;8.78;57.62;100480.47;7792683;32;37235;-83
2022/12/04 08:33:21;;;;;;;36.03;19.98;;;;;;;8.76;57.16;100474.41;7792669;32;39409;-79
2022/12/04 08:37:37;;;;;;;34.80;19.87;;;;;;;9.07;57.96;100469.53;7792620;32;40177;-83
2022/12/04 08:41:54;;;;;;;33.25;19.00;;;;;;;9.05;55.74;100483.38;7784356;32;38475;-84
2022/12/04 08:46:14;;;;;;;34.13;19.75;;;;;;;9.27;54.86;100483.50;7773536;32;36005;-84
2022/12/04 08:50:31;;;;;;;33.92;20.10;;;;;;;8.96;55.06;100472.06;7774392;32;39015;-84
2022/12/04 08:54:49;;;;;;;31.05;19.05;;;;;;;8.90;56.37;100473.06;7778577;32;40834;-83
2022/12/04 08:59:05;;;;;;;33.75;19.75;;;;;;;9.06;56.25;100473.34;7759680;32;38047;-84
2022/12/04 09:03:21;;;;;;;29.92;19.10;;;;;;;9.31;54.45;100462.91;7775221;32;37356;-83
2022/12/04 09:07:45;;;;;;;32.47;19.65;;;;;;;9.07;54.40;100473.09;7774528;32;40048;-83
2022/12/04 09:12:01;;;;;;;35.50;20.55;;;;;;;9.15;54.46;100459.06;7774324;32;40588;-83
2022/12/04 09:16:20;;;;;;;33.92;20.23;;;;;;;8.91;55.25;100452.94;7781189;32;38709;-83
2022/12/04 09:20:36;;;;;;;35.78;19.50;;;;;;;9.00;55.48;100451.50;7774713;32;38196;-82
2022/12/04 09:24:53;;;;;;;35.40;20.02;;;;;;;9.33;54.42;100455.31;7768886;32;40048;-83
2022/12/04 09:29:10;;;;;;;32.00;18.85;;;;;;;9.19;54.75;100435.78;7779557;32;40767;-83
2022/12/04 09:33:27;;;;;;;33.53;19.95;;;;;;;9.13;55.33;100431.31;7762153;32;37765;-83
2022/12/04 09:37:43;;;;;;;33.13;18.83;;;;;;;9.35;54.92;100428.66;7772430;32;37224;-82
2022/12/04 09:42:02;;;;;;;34.88;18.90;;;;;;;9.37;54.75;100431.97;7772734;32;39226;-82
2022/12/04 09:46:43;;;;;;;33.40;18.83;;;;;;;9.34;55.18;100429.72;7785317;32;40023;-76
2022/12/04 09:51:01;;;;;;;31.02;18.35;;;;;;;9.83;58.91;100429.09;7769818;32;38663;-83
2022/12/04 09:55:52;;;;;;;31.25;17.55;;;;;;;10.14;53.57;100427.59;7777930;32;36776;-84
2022/12/04 10:00:13;;;;;;;28.15;17.20;;;;;;;10.74;53.51;100429.66;7780593;32;39243;-85
2022/12/04 10:04:30;;;;;;;30.10;16.52;;;;;;;10.94;51.16;100421.69;7777128;32;40743;-83
2022/12/04 10:09:05;;;;;;;27.20;15.50;;;;;;;11.09;50.65;100410.09;7791359;32;38069;-81
2022/12/04 10:13:38;;;;;;;27.35;15.88;;;;;;;10.66;51.07;100409.97;7760848;32;37028;-83
2022/12/04 10:18:05;;;;;;;24.92;15.00;;;;;;;10.81;50.87;100403.81;7750148;32;39124;-81
2022/12/04 10:22:36;;;;;;;30.45;17.23;;;;;;;10.69;51.27;100393.09;7784245;32;40603;-81
2022/12/04 10:26:55;;;;;;;27.23;15.77;;;;;;;10.58;52.05;100391.31;7772095;32;38257;-81
2022/12/04 10:31:15;;;;;;;29.98;16.60;;;;;;;10.98;51.46;100395.50;7765078;32;37202;-81
2022/12/04 10:35:33;;;;;;;28.80;16.73;;;;;;;11.38;49.78;100387.91;7763466;32;38964;-82
2022/12/04 10:40:30;;;;;;;28.90;16.92;;;;;;;11.62;49.19;100370.06;7771634;32;39214;-81
2022/12/04 10:44:46;;;;;;;32.47;18.05;;;;;;;11.85;48.29;100373.44;7758233;32;37719;-81
2022/12/04 10:49:08;;;;;;;29.85;16.92;;;;;;;11.80;49.16;100378.88;7788313;32;37096;-82
2022/12/04 10:53:31;;;;;;;31.58;18.12;;;;;;;11.81;48.76;100372.31;7782595;32;39331;-82
2022/12/04 10:57:47;;;;;;;31.62;17.70;;;;;;;12.10;48.45;100370.03;7755279;32;39945;-86
2022/12/04 11:02:23;;;;;;;27.45;15.45;;;;;;;12.06;48.11;100366.19;7762980;32;38089;-83
2022/12/04 11:06:39;;;;;;;27.85;15.10;;;;;;;12.20;48.50;100341.91;7763202;32;37060;-82
2022/12/04 11:11:15;;;;;;;27.40;16.25;;;;;;;12.53;47.70;100348.81;7789922;32;38974;-81
2022/12/04 11:15:35;;;;;;;28.30;16.08;;;;;;;12.44;47.02;100341.44;7789789;32;39707;-82
2022/12/04 11:20:23;;;;;;;25.75;15.40;;;;;;;12.61;46.98;100325.59;7792663;32;38154;-82
2022/12/04 11:24:41;;;;;;;25.98;15.38;;;;;;;12.62;46.62;100326.41;7781567;32;36863;-82
2022/12/04 11:29:00;;;;;;;26.55;15.55;;;;;;;12.91;46.70;100311.06;7793322;32;38159;-82
2022/12/04 11:33:28;;;;;;;26.37;14.68;;;;;;;12.96;45.95;100299.31;7791732;32;40241;-82
2022/12/04 11:37:54;;;;;;;23.90;14.18;;;;;;;12.99;46.07;100293.28;7779773;32;37806;-82
2022/12/04 11:42:42;;;;;;;23.27;13.65;;;;;;;13.50;44.70;100282.25;7765575;32;37965;-82
2022/12/04 11:47:01;;;;;;;21.70;13.00;;;;;;;13.53;44.15;100273.47;7766251;32;39092;-82
2022/12/04 11:51:41;;;;;;;26.70;14.07;;;;;;;13.49;44.40;100272.38;7753073;32;40068;-82
2022/12/04 11:56:00;;;;;;;28.52;14.77;;;;;;;13.12;44.70;100273.56;7774712;32;38646;-81
2022/12/04 12:00:18;;;;;;;28.40;15.18;;;;;;;13.75;43.33;100271.47;7769314;32;37863;-82
2022/12/04 12:04:52;;;;;;;27.62;14.20;;;;;;;13.12;44.96;100268.09;7773807;32;39228;-82
2022/12/04 12:09:30;;;;;;;24.33;14.38;;;;;;;12.86;45.42;100266.47;7765725;32;40815;-81
2022/12/04 12:13:55;;;;;;;23.58;13.70;;;;;;;13.13;44.70;100266.97;7765227;32;38153;-81
2022/12/04 12:18:45;;;;;;;23.25;13.80;;;;;;;12.55;46.20;100263.75;7767808;32;37897;-83
2022/12/04 12:23:35;;;;;;;22.27;13.15;;;;;;;12.76;45.42;100251.72;7782867;32;39987;-83
2022/12/04 12:28:14;;;;;;;22.83;14.00;;;;;;;12.94;45.38;100242.09;7761668;32;40899;-83
2022/12/04 12:32:40;;;;;;;23.73;12.75;;;;;;;11.94;46.91;100246.19;7739805;32;38050;-82
2022/12/04 12:36:57;;;;;;;22.67;13.77;;;;;;;12.69;45.85;100240.22;7765645;32;36956;-82
2022/12/04 12:41:37;;;;;;;22.25;11.88;;;;;;;12.44;45.81;100248.47;7790915;32;39765;-82
2022/12/04 12:45:55;;;;;;;21.70;12.55;;;;;;;12.70;45.62;100252.81;7775289;32;40799;-82
2022/12/04 12:50:20;;;;;;;20.15;11.85;;;;;;;12.07;46.59;100261.22;7770529;32;38178;-83
2022/12/04 12:54:43;;;;;;;21.02;12.02;;;;;;;11.82;46.98;100253.78;7785441;32;36828;-82
2022/12/04 12:59:02;;;;;;;20.55;12.40;;;;;;;11.46;48.73;100262.66;7766642;32;39363;-83
2022/12/04 13:03:45;;;;;;;22.45;12.60;;;;;;;11.87;46.82;100251.06;7769581;32;39958;-83
2022/12/04 13:08:21;;;;;;;20.77;11.68;;;;;;;11.05;49.25;100253.41;7780212;32;37744;-85
2022/12/04 13:12:55;;;;;;;20.12;11.63;;;;;;;11.79;47.86;100251.59;7774232;32;36813;-83
2022/12/04 13:17:19;;;;;;;18.75;10.07;;;;;;;12.21;46.47;100250.59;7772791;32;39051;-83
2022/12/04 13:21:42;;;;;;;19.15;10.70;;;;;;;12.33;46.17;100262.12;7761537;32;39607;-84
2022/12/04 13:26:13;;;;;;;20.40;11.18;;;;;;;12.10;46.89;100249.75;7791095;32;37974;-83
2022/12/04 13:30:50;;;;;;;19.15;10.85;;;;;;;12.47;45.74;100239.69;7778985;32;37918;-84
2022/12/04 13:35:19;;;;;;;19.48;10.10;;;;;;;12.51;45.09;100246.25;7791755;32;39965;-83
2022/12/04 13:40:07;;;;;;;18.87;10.40;;;;;;;12.32;45.61;100235.03;7790854;32;39817;-83
2022/12/04 13:44:27;;;;;;;16.67;10.23;;;;;;;12.94;44.50;100230.34;7792056;32;37694;-82
2022/12/04 13:48:43;;;;;;;17.85;10.57;;;;;;;14.40;41.13;100233.78;7791588;32;37087;-83
2022/12/04 13:53:00;;;;;;;18.95;10.20;;;;;;;15.03;39.77;100241.16;7771937;32;39725;-84
2022/12/04 13:57:20;;;;;;;17.87;10.82;;;;;;;14.99;39.33;100253.03;7742602;32;262202;-84
2022/12/04 14:01:39;;;;;;;19.87;10.88;;;;;;;14.09;41.24;100261.41;7764477;32;38110;-84
2022/12/04 14:05:58;;;;;;;18.70;10.15;;;;;;;13.10;43.67;100259.31;7750770;32;37771;-84
2022/12/04 14:10:15;;;;;;;21.17;10.70;;;;;;;12.80;44.47;100262.94;7764271;32;39758;-83
2022/12/04 14:14:55;;;;;;;19.70;10.90;;;;;;;12.20;46.16;100262.62;7764584;32;38080;-84
2022/12/04 14:19:32;;;;;;;18.37;9.85;;;;;;;11.85;47.20;100272.38;7763911;32;37314;-83
2022/12/04 14:23:49;;;;;;;18.42;10.43;;;;;;;12.02;46.99;100270.25;7774340;32;37020;-83
2022/12/04 14:28:37;;;;;;;20.17;10.97;;;;;;;11.34;48.27;100269.44;7791007;32;38922;-83
2022/12/04 14:33:30;;;;;;;18.87;11.12;;;;;;;11.34;48.46;100280.34;7790732;32;40091;-83
2022/12/04 14:38:14;;;;;;;21.08;11.30;;;;;;;11.30;48.55;100273.75;7785124;32;37998;-83
2022/12/04 14:42:38;;;;;;;20.55;11.02;;;;;;;11.03;49.48;100285.59;7750702;32;37168;-84
2022/12/04 14:47:03;;;;;;;26.45;12.32;;;;;;;10.83;49.85;100284.41;7750030;32;39957;-75
2022/12/04 14:51:33;;;;;;;22.00;11.85;;;;;;;10.51;50.88;100287.13;7750995;32;40828;-83
2022/12/04 14:56:05;;;;;;;20.52;11.40;;;;;;;10.58;50.79;100289.62;7754831;32;38035;-83
2022/12/04 15:00:23;;;;;;;23.87;11.60;;;;;;;10.55;50.82;100290.97;7764572;32;37093;-83
2022/12/04 15:04:44;;;;;;;24.02;12.37;;;;;;;10.39;51.41;100291.94;7775985;32;39427;-83
2022/12/04 15:13:39;;;;;;;19.35;12.23;;;;;;;10.12;52.42;100285.38;7793381;32;38554;-83
2022/12/04 15:18:15;;;;;;;22.25;12.68;;;;;;;10.06;52.50;100297.28;7776940;32;37630;-82
2022/12/04 15:22:31;;;;;;;22.60;12.27;;;;;;;9.91;53.24;100292.47;7772849;32;38939;-84
2022/12/04 15:26:49;;;;;;;25.25;12.70;;;;;;;9.75;53.83;100299.66;7790379;32;40521;-85
2022/12/04 15:31:09;;;;;;;24.50;11.95;;;;;;;9.93;53.05;100301.25;7779382;32;37957;-84
2022/12/04 15:35:31;;;;;;;20.05;12.20;;;;;;;10.37;52.00;100305.81;7779827;32;37139;-85
2022/12/04 15:39:48;;;;;;;22.93;12.07;;;;;;;10.34;51.95;100311.75;7774756;32;39413;-83
2022/12/04 15:44:28;;;;;;;25.98;12.95;;;;;;;10.30;52.26;100310.63;7792753;32;39895;-83
2022/12/04 15:48:44;;;;;;;22.33;12.50;;;;;;;10.26;52.43;100304.84;7792860;32;38338;-82
2022/12/04 15:53:16;;;;;;;23.83;13.00;;;;;;;10.08;53.01;100308.75;7793044;32;36200;-83
2022/12/04 15:57:38;;;;;;;22.95;12.45;;;;;;;10.02;53.14;100304.34;7792977;32;39336;-83
2022/12/04 16:01:58;;;;;;;23.75;12.73;;;;;;;10.35;52.74;100302.53;7792166;32;39981;-83
2022/12/04 16:06:25;;;;;;;24.05;13.95;;;;;;;10.46;52.63;100304.25;7772883;32;38005;-84
2022/12/04 16:10:41;;;;;;;28.15;14.85;;;;;;;10.28;53.52;100315.50;7787861;32;37223;-84
2022/12/04 16:15:00;;;;;;;26.23;15.05;;;;;;;10.27;53.51;100316.56;7765256;32;39390;-86
2022/12/04 16:19:31;;;;;;;23.20;14.48;;;;;;;10.37;53.44;100315.91;7764698;32;39936;-85
2022/12/04 16:23:49;;;;;;;25.45;15.02;;;;;;;10.15;53.99;100319.44;7772164;32;37796;-86
2022/12/04 16:28:05;;;;;;;29.17;14.73;;;;;;;9.90;54.63;100322.69;7751582;32;37187;-84
2022/12/04 16:32:26;;;;;;;28.60;15.68;;;;;;;10.01;54.66;100316.28;7764580;32;39216;-87
2022/12/04 16:36:45;;;;;;;31.42;17.20;;;;;;;10.23;54.27;100323.62;7765152;32;39861;-84
2022/12/04 16:41:04;;;;;;;30.52;19.23;;;;;;;10.04;55.05;100318.50;7766110;32;37769;-86
2022/12/04 16:45:32;;;;;;;30.48;17.92;;;;;;;10.05;54.84;100322.06;7760360;32;37075;-87
2022/12/04 16:49:51;;;;;;;35.85;17.95;;;;;;;9.92;55.68;100323.28;7769683;32;39326;-85
2022/12/04 16:54:10;;;;;;;33.30;18.90;;;;;;;9.98;55.86;100318.72;7770503;32;38528;-83
2022/12/04 16:58:27;;;;;;;32.75;19.15;;;;;;;9.48;57.25;100320.53;7766366;32;38049;-83
2022/12/04 17:02:44;;;;;;;30.90;18.23;;;;;;;9.81;56.53;100321.50;7766170;32;37036;-83
2022/12/04 17:07:00;;;;;;;33.08;18.02;;;;;;;9.83;56.52;100322.91;7774394;32;40099;-83
2022/12/04 17:11:17;;;;;;;33.03;18.95;;;;;;;9.64;56.94;100325.13;7773645;32;40856;-83
2022/12/04 17:15:34;;;;;;;32.80;19.00;;;;;;;9.73;56.78;100330.94;7772864;32;38744;-85
2022/12/04 17:19:51;;;;;;;32.38;19.45;;;;;;;9.98;56.17;100324.16;7776866;32;37192;-85
2022/12/04 17:24:07;;;;;;;33.33;18.48;;;;;;;9.96;56.15;100318.97;7777604;32;40047;-84
2022/12/04 17:28:23;;;;;;;32.28;18.73;;;;;;;9.79;56.76;100321.75;7773101;32;39903;-87
2022/12/04 17:32:40;;;;;;;36.00;20.45;;;;;;;9.86;56.68;100316.13;7763970;32;37587;-88
2022/12/04 17:36:56;;;;;;;30.85;17.80;;;;;;;9.89;56.73;100318.34;7774745;32;37701;-88
2022/12/04 17:41:14;;;;;;;34.28;19.50;;;;;;;9.72;57.30;100319.22;7778565;32;39355;-88
2022/12/04 17:45:30;;;;;;;37.05;19.73;;;;;;;9.50;58.13;100326.53;7763046;32;39077;-86
2022/12/04 17:49:47;;;;;;;34.25;20.25;;;;;;;9.55;58.00;100332.06;7762861;32;37913;-86
2022/12/04 17:54:04;;;;;;;34.33;17.90;;;;;;;9.49;58.01;100331.16;7755084;32;37953;-88
2022/12/04 17:58:20;;;;;;;32.40;18.42;;;;;;;9.37;58.30;100333.19;7767766;32;39297;-84
2022/12/04 18:02:37;;;;;;;32.13;18.73;;;;;;;9.50;58.01;100324.66;7767651;32;37789;-83
2022/12/04 18:06:55;;;;;;;34.08;19.40;;;;;;;9.58;57.63;100328.84;7774803;32;37010;-84
2022/12/04 18:11:11;;;;;;;33.13;19.33;;;;;;;9.29;58.53;100330.88;7773885;32;36661;-85
2022/12/04 18:15:28;;;;;;;33.15;19.12;;;;;;;9.66;57.51;100333.00;7776578;32;38956;-85
2022/12/04 18:19:44;;;;;;;33.47;19.12;;;;;;;9.59;57.80;100335.94;7776431;32;39974;-83
2022/12/04 18:24:02;;;;;;;36.03;20.48;;;;;;;9.30;58.64;100346.16;7773869;32;38763;-85
2022/12/04 18:28:18;;;;;;;36.45;19.90;;;;;;;9.42;58.19;100349.59;7793001;32;36978;-83
2022/12/04 18:32:35;;;;;;;36.10;19.58;;;;;;;9.52;59.08;100338.84;7773713;32;39954;-83
2022/12/04 18:36:51;;;;;;;35.53;21.00;;;;;;;9.52;58.42;100340.72;7767102;32;40877;-83
2022/12/04 18:41:10;;;;;;;35.50;20.62;;;;;;;9.34;58.90;100337.22;7766908;32;38199;-83
2022/12/04 18:45:26;;;;;;;38.03;20.92;;;;;;;9.58;58.15;100347.91;7767112;32;37241;-86
2022/12/04 18:49:42;;;;;;;33.42;19.77;;;;;;;9.25;59.61;100344.16;7766898;32;38979;-88
2022/12/04 18:54:02;;;;;;;36.67;19.92;;;;;;;9.42;58.76;100343.28;7763922;32;40155;-86
2022/12/04 18:58:21;;;;;;;33.47;18.65;;;;;;;9.28;58.93;100346.41;7766644;32;38745;-86
2022/12/04 19:02:38;;;;;;;33.55;19.80;;;;;;;9.34;58.79;100348.09;7774404;32;36901;-87
2022/12/04 19:06:55;;;;;;;31.90;18.12;;;;;;;9.06;59.38;100346.31;7751543;32;39798;-84
2022/12/04 19:11:14;;;;;;;42.62;20.00;;;;;;;8.98;60.12;100344.00;7750540;32;39882;-83
2022/12/04 19:15:30;;;;;;;30.73;19.12;;;;;;;9.17;59.22;100341.84;7769916;32;37912;-84
2022/12/04 19:19:46;;;;;;;31.90;18.60;;;;;;;9.12;59.76;100336.34;7767501;32;37846;-84
2022/12/04 19:24:03;;;;;;;30.52;17.77;;;;;;;9.11;59.55;100335.53;7765855;32;39467;-83
2022/12/04 19:28:19;;;;;;;31.62;18.50;;;;;;;9.32;58.90;100339.38;7776548;32;40195;-83
2022/12/04 19:32:35;;;;;;;33.75;19.00;;;;;;;9.22;59.35;100341.94;7792738;32;38652;-83
2022/12/04 19:36:53;;;;;;;31.37;18.25;;;;;;;9.27;59.30;100341.19;7792416;32;38351;-83
2022/12/04 19:41:15;;;;;;;32.83;18.80;;;;;;;8.89;60.71;100332.72;7778428;32;38448;-83
2022/12/04 19:45:31;;;;;;;34.05;19.10;;;;;;;8.56;62.32;100352.56;7792393;32;38146;-83
2022/12/04 19:49:48;;;;;;;32.17;19.27;;;;;;;8.69;62.35;100343.25;7782601;32;37784;-84
2022/12/04 19:54:10;;;;;;;33.40;20.00;;;;;;;8.64;62.86;100342.13;7765483;32;37879;-83
2022/12/04 19:58:30;;;;;;;35.55;20.33;;;;;;;8.56;62.92;100349.84;7765139;32;39136;-84
2022/12/04 20:02:46;;;;;;;35.65;20.45;;;;;;;8.83;62.05;100358.19;7765441;32;40918;-84
2022/12/04 20:07:02;;;;;;;33.60;20.25;;;;;;;8.86;61.72;100352.25;7764984;32;38728;-84
2022/12/04 20:11:19;;;;;;;31.30;20.42;;;;;;;8.49;62.72;100352.72;7765198;32;37105;-85
2022/12/04 20:15:36;;;;;;;33.03;19.33;;;;;;;8.45;62.71;100351.53;7765048;32;39268;-84